Billie H — WCY4992 — position and weather

sailwx.info

Track history (hours):
 
Tides and Currents Weather Stations Pressure Air Temp Water Temp Dewpoint Dewpoint Depression Visibility Wind Speed Wind Dir Waves Ship Positions

Billie H

Owner: BOYER TOWING INC, KETCHIKAN, AK. More information available from US FCC via Universal Licensing System and Coast Guard Vessel Documentation Center.

Last reported at 2016-Dec-07 06:33 UTC. Time now 2016-Dec-10 05:06 UTC.
Position N 51°31' W 127°51'.

Type: Tow > 200 m length. MMSI: 366751770.

Date/timePositionNaut miles runAvg speedWind from/ knotsBaromVisibWave heightAir tempDewpointWater temp
2016-Dec-07 06:33N 51°31' W 127°51'21 6.7
2016-Dec-07 03:28N 51°10' W 127°51'6 7.1
2016-Dec-07 02:33N 51°05' W 127°45'7 6.8
2016-Dec-07 01:33N 51°01' W 127°37'7 6.7
2016-Dec-07 00:33N 50°57' W 127°28'7 6.7
2016-Dec-06 23:33N 50°53' W 127°20'8 7.5
2016-Dec-06 22:32N 50°49' W 127°09'87 6.6
2016-Dec-06 09:26N 50°02' W 125°14'8 8.1
2016-Dec-06 08:27N 49°56' W 125°06'7 7.1
2016-Dec-06 07:31N 49°52' W 124°57'15 7.4
2016-Dec-06 05:30N 49°43' W 124°39'7 7.0
2016-Dec-06 04:33N 49°39' W 124°32'8 7.4
2016-Dec-06 03:33N 49°34' W 124°23'4 4.2
2016-Dec-06 02:31N 49°31' W 124°17'0 0.1
2016-Dec-06 01:29N 49°31' W 124°17'0 0.2
2016-Dec-06 00:33N 49°31' W 124°17'2 1.9
2016-Dec-05 23:32N 49°32' W 124°14'7 7.2
2016-Dec-05 22:33N 49°28' W 124°05'7 6.7
2016-Dec-05 21:33N 49°24' W 123°56'6 6.4
2016-Dec-05 20:32N 49°20' W 123°48'7 7.0
2016-Dec-05 19:30N 49°16' W 123°39'7 7.0
2016-Dec-05 18:31N 49°11' W 123°32'7 7.2
2016-Dec-05 17:33N 49°06' W 123°24'8 7.5
2016-Dec-05 16:32N 49°01' W 123°16'7 7.1
2016-Dec-05 15:33N 48°56' W 123°08'9 8.0
2016-Dec-05 14:27N 48°51' W 122°58'14 7.3
2016-Dec-05 12:33N 48°41' W 122°43'8 7.7
2016-Dec-05 11:33N 48°33' W 122°45'7 7.1
2016-Dec-05 10:33N 48°26' W 122°44'13 6.5
2016-Dec-05 08:30N 48°13' W 122°48'13 9.1
2016-Dec-05 07:07N 48°03' W 122°38'5 9.3
2016-Dec-05 06:33N 47°58' W 122°34'8 8.2
2016-Dec-05 05:33N 47°51' W 122°28'7 7.3
2016-Dec-05 04:33N 47°44' W 122°26'7 7.4
2016-Dec-05 03:33N 47°37' W 122°27'6 6.4
2016-Dec-05 02:33N 47°31' W 122°29'2 2.3
2016-Dec-05 01:33N 47°33' W 122°28'8 7.8
2016-Dec-05 00:33N 47°40' W 122°24'0 0.3
2016-Dec-04 23:33N 47°40' W 122°23'0 0.0
2016-Dec-04 22:33N 47°40' W 122°23'0 0.0
2016-Dec-04 21:33N 47°40' W 122°23'0 0.0
2016-Dec-04 20:33N 47°40' W 122°23'0 0.0
2016-Dec-04 19:33N 47°40' W 122°23'0 0.0
2016-Dec-04 18:33N 47°40' W 122°23'0 0.0
2016-Dec-04 17:33N 47°40' W 122°23'0 0.0
2016-Dec-04 16:33N 47°40' W 122°23'0 0.0
2016-Dec-04 15:33N 47°40' W 122°23'0 0.0
2016-Dec-04 14:33N 47°40' W 122°23'0 0.0
2016-Dec-04 13:33N 47°40' W 122°23'0 0.0
2016-Dec-04 12:33N 47°40' W 122°23'0 0.0
2016-Dec-04 11:33N 47°40' W 122°23'0 0.0
2016-Dec-04 10:33N 47°40' W 122°23'0 0.0
2016-Dec-04 09:33N 47°40' W 122°23'0 0.0
2016-Dec-04 08:33N 47°40' W 122°23'0 0.0
2016-Dec-04 07:33N 47°40' W 122°23'0 0.0
2016-Dec-04 06:33N 47°40' W 122°23'0 0.0
2016-Dec-04 05:33N 47°40' W 122°23'0 0.0
2016-Dec-04 04:33N 47°40' W 122°23'0 0.0
2016-Dec-04 03:33N 47°40' W 122°23'0 0.0
2016-Dec-04 02:33N 47°40' W 122°23'0 0.0
2016-Dec-04 01:33N 47°40' W 122°23'2 1.6
2016-Dec-04 00:33N 47°41' W 122°25'5 4.9
2016-Dec-03 23:33N 47°43' W 122°32'6 6.0
2016-Dec-03 22:33N 47°48' W 122°28'9 9.4
2016-Dec-03 21:33N 47°57' W 122°33'24 7.8
2016-Dec-03 18:25N 48°12' W 123°02'8 8.9
2016-Dec-03 17:33N 48°11' W 123°13'1010.0
2016-Dec-03 16:33N 48°11' W 123°28'1010.3
2016-Dec-03 15:33N 48°12' W 123°44'1010.1
2016-Dec-03 14:31N 48°14' W 123°59'1110.9
2016-Dec-03 13:33N 48°18' W 124°13'1110.9
2016-Dec-03 12:33N 48°23' W 124°28'1110.8
2016-Dec-03 11:33N 48°27' W 124°43'9 9.3
2016-Dec-03 10:33N 48°20' W 124°53'10 9.0
2016-Dec-03 09:28N 48°11' W 124°57'65 9.4
2016-Dec-03 02:30N 47°07' W 124°34'9 8.9
2016-Dec-03 01:33N 46°59' W 124°32'9 9.0
2016-Dec-03 00:33N 46°50' W 124°29'8 8.3
2016-Dec-02 23:33N 46°42' W 124°26'9 9.0
2016-Dec-02 22:33N 46°33' W 124°24'10 9.9
2016-Dec-02 21:33N 46°23' W 124°21'10 9.7
2016-Dec-02 20:33N 46°14' W 124°17'9 9.5
2016-Dec-02 19:34N 46°05' W 124°12'10 9.7
2016-Dec-02 18:33N 45°56' W 124°08'10 9.8
2016-Dec-02 17:33N 45°46' W 124°06'10 9.9
2016-Dec-02 16:33N 45°36' W 124°04'1010.2
2016-Dec-02 15:33N 45°26' W 124°04'  
2016-Nov-30 04:33N 45°10' W 124°06'8 7.6
2016-Nov-30 03:33N 45°18' W 124°06'7 7.5
2016-Nov-30 02:34N 45°25' W 124°05'8 7.7
2016-Nov-30 01:33N 45°33' W 124°05'8 7.8
2016-Nov-30 00:33N 45°41' W 124°05'8 7.8
2016-Nov-29 23:33N 45°49' W 124°07'8 7.8
2016-Nov-29 22:33N 45°56' W 124°08'8 8.0
2016-Nov-29 21:33N 46°04' W 124°09'7 7.5
2016-Nov-29 20:34N 46°12' W 124°09'5 5.0
2016-Nov-29 19:33N 46°16' W 124°04'6 6.5
2016-Nov-29 18:33N 46°12' W 123°56'1 1.0
2016-Nov-29 17:33N 46°12' W 123°56'2 1.9
2016-Nov-29 16:33N 46°13' W 123°57'6 6.1
2016-Nov-29 15:33N 46°14' W 124°06'6 6.3
2016-Nov-29 14:34N 46°12' W 124°14'9 8.7
2016-Nov-29 13:33N 46°20' W 124°19'1110.6
2016-Nov-29 12:33N 46°30' W 124°23'1110.5
2016-Nov-29 11:33N 46°40' W 124°26'1010.4
2016-Nov-29 10:33N 46°51' W 124°28'1110.5
2016-Nov-29 09:33N 47°01' W 124°32'6610.6
2016-Nov-29 03:23N 48°04' W 124°55'911.1
2016-Nov-29 02:33N 48°13' W 124°59'6 6.5
2016-Nov-29 01:33N 48°20' W 124°59'9 8.5
2016-Nov-29 00:33N 48°25' W 124°49'8 7.8
2016-Nov-28 23:33N 48°24' W 124°38'1110.9
2016-Nov-28 22:33N 48°19' W 124°23'1111.4
2016-Nov-28 21:33N 48°14' W 124°08'1111.0
2016-Nov-28 20:32N 48°11' W 123°52'1111.6
2016-Nov-28 19:33N 48°10' W 123°35'1211.5
2016-Nov-28 18:33N 48°13' W 123°18'1211.8
2016-Nov-28 17:33N 48°12' W 123°00'1712.1
2016-Nov-28 16:10N 48°04' W 122°38'813.8
2016-Nov-28 15:33N 47°57' W 122°32'1212.4
2016-Nov-28 14:33N 47°45' W 122°26'1010.5
2016-Nov-28 13:33N 47°35' W 122°21'0 0.0
2016-Nov-28 12:33N 47°35' W 122°21'1 1.3
2016-Nov-28 11:33N 47°34' W 122°21'2 2.0
2016-Nov-28 10:33N 47°32' W 122°20'0 0.0
2016-Nov-28 09:33N 47°32' W 122°20'0 0.0
2016-Nov-28 08:33N 47°32' W 122°20'  
Track history (hours):
 
Tides and Currents Weather Stations Pressure Air Temp Water Temp Dewpoint Dewpoint Depression Visibility Wind Speed Wind Dir Waves Ship Positions

Billie H

Owner: BOYER TOWING INC, KETCHIKAN, AK. More information available from US FCC via Universal Licensing System and Coast Guard Vessel Documentation Center.

Last reported at 2016-Dec-07 06:33 UTC. Time now 2016-Dec-10 05:06 UTC.
Position N 51°31' W 127°51'.

Type: Tow > 200 m length. MMSI: 366751770.

Date/timePositionNaut miles runAvg speedWind from/ knotsBaromVisibWave heightAir tempDewpointWater temp
2016-Dec-07 06:33N 51°31' W 127°51'21 6.7
2016-Dec-07 03:28N 51°10' W 127°51'6 7.1
2016-Dec-07 02:33N 51°05' W 127°45'7 6.8
2016-Dec-07 01:33N 51°01' W 127°37'7 6.7
2016-Dec-07 00:33N 50°57' W 127°28'7 6.7
2016-Dec-06 23:33N 50°53' W 127°20'8 7.5
2016-Dec-06 22:32N 50°49' W 127°09'87 6.6
2016-Dec-06 09:26N 50°02' W 125°14'8 8.1
2016-Dec-06 08:27N 49°56' W 125°06'7 7.1
2016-Dec-06 07:31N 49°52' W 124°57'15 7.4
2016-Dec-06 05:30N 49°43' W 124°39'7 7.0
2016-Dec-06 04:33N 49°39' W 124°32'8 7.4
2016-Dec-06 03:33N 49°34' W 124°23'4 4.2
2016-Dec-06 02:31N 49°31' W 124°17'0 0.1
2016-Dec-06 01:29N 49°31' W 124°17'0 0.2
2016-Dec-06 00:33N 49°31' W 124°17'2 1.9
2016-Dec-05 23:32N 49°32' W 124°14'7 7.2
2016-Dec-05 22:33N 49°28' W 124°05'7 6.7
2016-Dec-05 21:33N 49°24' W 123°56'6 6.4
2016-Dec-05 20:32N 49°20' W 123°48'7 7.0
2016-Dec-05 19:30N 49°16' W 123°39'7 7.0
2016-Dec-05 18:31N 49°11' W 123°32'7 7.2
2016-Dec-05 17:33N 49°06' W 123°24'8 7.5
2016-Dec-05 16:32N 49°01' W 123°16'7 7.1
2016-Dec-05 15:33N 48°56' W 123°08'9 8.0
2016-Dec-05 14:27N 48°51' W 122°58'14 7.3
2016-Dec-05 12:33N 48°41' W 122°43'8 7.7
2016-Dec-05 11:33N 48°33' W 122°45'7 7.1
2016-Dec-05 10:33N 48°26' W 122°44'13 6.5
2016-Dec-05 08:30N 48°13' W 122°48'13 9.1
2016-Dec-05 07:07N 48°03' W 122°38'5 9.3
2016-Dec-05 06:33N 47°58' W 122°34'8 8.2
2016-Dec-05 05:33N 47°51' W 122°28'7 7.3
2016-Dec-05 04:33N 47°44' W 122°26'7 7.4
2016-Dec-05 03:33N 47°37' W 122°27'6 6.4
2016-Dec-05 02:33N 47°31' W 122°29'2 2.3
2016-Dec-05 01:33N 47°33' W 122°28'8 7.8
2016-Dec-05 00:33N 47°40' W 122°24'0 0.3
2016-Dec-04 23:33N 47°40' W 122°23'0 0.0
2016-Dec-04 22:33N 47°40' W 122°23'0 0.0
2016-Dec-04 21:33N 47°40' W 122°23'0 0.0
2016-Dec-04 20:33N 47°40' W 122°23'0 0.0
2016-Dec-04 19:33N 47°40' W 122°23'0 0.0
2016-Dec-04 18:33N 47°40' W 122°23'0 0.0
2016-Dec-04 17:33N 47°40' W 122°23'0 0.0
2016-Dec-04 16:33N 47°40' W 122°23'0 0.0
2016-Dec-04 15:33N 47°40' W 122°23'0 0.0
2016-Dec-04 14:33N 47°40' W 122°23'0 0.0
2016-Dec-04 13:33N 47°40' W 122°23'0 0.0
2016-Dec-04 12:33N 47°40' W 122°23'0 0.0
2016-Dec-04 11:33N 47°40' W 122°23'0 0.0
2016-Dec-04 10:33N 47°40' W 122°23'0 0.0
2016-Dec-04 09:33N 47°40' W 122°23'0 0.0
2016-Dec-04 08:33N 47°40' W 122°23'0 0.0
2016-Dec-04 07:33N 47°40' W 122°23'0 0.0
2016-Dec-04 06:33N 47°40' W 122°23'0 0.0
2016-Dec-04 05:33N 47°40' W 122°23'0 0.0
2016-Dec-04 04:33N 47°40' W 122°23'0 0.0
2016-Dec-04 03:33N 47°40' W 122°23'0 0.0
2016-Dec-04 02:33N 47°40' W 122°23'0 0.0
2016-Dec-04 01:33N 47°40' W 122°23'2 1.6
2016-Dec-04 00:33N 47°41' W 122°25'5 4.9
2016-Dec-03 23:33N 47°43' W 122°32'6 6.0
2016-Dec-03 22:33N 47°48' W 122°28'9 9.4
2016-Dec-03 21:33N 47°57' W 122°33'24 7.8
2016-Dec-03 18:25N 48°12' W 123°02'8 8.9
2016-Dec-03 17:33N 48°11' W 123°13'1010.0
2016-Dec-03 16:33N 48°11' W 123°28'1010.3
2016-Dec-03 15:33N 48°12' W 123°44'1010.1
2016-Dec-03 14:31N 48°14' W 123°59'1110.9
2016-Dec-03 13:33N 48°18' W 124°13'1110.9
2016-Dec-03 12:33N 48°23' W 124°28'1110.8
2016-Dec-03 11:33N 48°27' W 124°43'9 9.3
2016-Dec-03 10:33N 48°20' W 124°53'10 9.0
2016-Dec-03 09:28N 48°11' W 124°57'65 9.4
2016-Dec-03 02:30N 47°07' W 124°34'9 8.9
2016-Dec-03 01:33N 46°59' W 124°32'9 9.0
2016-Dec-03 00:33N 46°50' W 124°29'8 8.3
2016-Dec-02 23:33N 46°42' W 124°26'9 9.0
2016-Dec-02 22:33N 46°33' W 124°24'10 9.9
2016-Dec-02 21:33N 46°23' W 124°21'10 9.7
2016-Dec-02 20:33N 46°14' W 124°17'9 9.5
2016-Dec-02 19:34N 46°05' W 124°12'10 9.7
2016-Dec-02 18:33N 45°56' W 124°08'10 9.8
2016-Dec-02 17:33N 45°46' W 124°06'10 9.9
2016-Dec-02 16:33N 45°36' W 124°04'1010.2
2016-Dec-02 15:33N 45°26' W 124°04'  
2016-Nov-30 04:33N 45°10' W 124°06'8 7.6
2016-Nov-30 03:33N 45°18' W 124°06'7 7.5
2016-Nov-30 02:34N 45°25' W 124°05'8 7.7
2016-Nov-30 01:33N 45°33' W 124°05'8 7.8
2016-Nov-30 00:33N 45°41' W 124°05'8 7.8
2016-Nov-29 23:33N 45°49' W 124°07'8 7.8
2016-Nov-29 22:33N 45°56' W 124°08'8 8.0
2016-Nov-29 21:33N 46°04' W 124°09'7 7.5
2016-Nov-29 20:34N 46°12' W 124°09'5 5.0
2016-Nov-29 19:33N 46°16' W 124°04'6 6.5
2016-Nov-29 18:33N 46°12' W 123°56'1 1.0
2016-Nov-29 17:33N 46°12' W 123°56'2 1.9
2016-Nov-29 16:33N 46°13' W 123°57'6 6.1
2016-Nov-29 15:33N 46°14' W 124°06'6 6.3
2016-Nov-29 14:34N 46°12' W 124°14'9 8.7
2016-Nov-29 13:33N 46°20' W 124°19'1110.6
2016-Nov-29 12:33N 46°30' W 124°23'1110.5
2016-Nov-29 11:33N 46°40' W 124°26'1010.4
2016-Nov-29 10:33N 46°51' W 124°28'1110.5
2016-Nov-29 09:33N 47°01' W 124°32'6610.6
2016-Nov-29 03:23N 48°04' W 124°55'911.1
2016-Nov-29 02:33N 48°13' W 124°59'6 6.5
2016-Nov-29 01:33N 48°20' W 124°59'9 8.5
2016-Nov-29 00:33N 48°25' W 124°49'8 7.8
2016-Nov-28 23:33N 48°24' W 124°38'1110.9
2016-Nov-28 22:33N 48°19' W 124°23'1111.4
2016-Nov-28 21:33N 48°14' W 124°08'1111.0
2016-Nov-28 20:32N 48°11' W 123°52'1111.6
2016-Nov-28 19:33N 48°10' W 123°35'1211.5
2016-Nov-28 18:33N 48°13' W 123°18'1211.8
2016-Nov-28 17:33N 48°12' W 123°00'1712.1
2016-Nov-28 16:10N 48°04' W 122°38'813.8
2016-Nov-28 15:33N 47°57' W 122°32'1212.4
2016-Nov-28 14:33N 47°45' W 122°26'1010.5
2016-Nov-28 13:33N 47°35' W 122°21'0 0.0
2016-Nov-28 12:33N 47°35' W 122°21'1 1.3
2016-Nov-28 11:33N 47°34' W 122°21'2 2.0
2016-Nov-28 10:33N 47°32' W 122°20'0 0.0
2016-Nov-28 09:33N 47°32' W 122°20'0 0.0
2016-Nov-28 08:33N 47°32' W 122°20'  

Dump ship's entire track history